Time;durP1;ratioP1;P1;durP2;ratioP2;P2;SDS_P1;SDS_P2;PMS_P1;PMS_P2;Temp;Humidity;BMP_temperature;BMP_pressure;BME280_temperature;BME280_humidity;BME280_pressure;Samples;Min_cycle;Max_cycle;Signal;HPM_P1;HPM_P2
2021/09/10 00:00:27;;;;;;;29.15;19.60;;;;;;;19.87;46.54;101020.97;5035778;28;20075;-69
2021/09/10 00:02:53;;;;;;;29.65;18.52;;;;;;;19.88;46.70;101018.22;5043505;28;20037;-69
2021/09/10 00:05:18;;;;;;;23.52;16.58;;;;;;;19.86;46.71;101029.88;5037274;28;20064;-71
2021/09/10 00:07:44;;;;;;;30.75;18.63;;;;;;;19.77;47.25;101025.28;5041908;28;20032;-68
2021/09/10 00:10:09;;;;;;;29.67;18.35;;;;;;;19.73;47.09;101026.50;5035208;28;20120;-68
2021/09/10 00:12:35;;;;;;;27.88;17.65;;;;;;;19.65;47.38;101027.91;5036371;28;20033;-69
2021/09/10 00:15:01;;;;;;;32.13;19.02;;;;;;;19.70;47.14;101025.78;5035659;28;20037;-69
2021/09/10 00:17:27;;;;;;;33.25;18.85;;;;;;;19.73;47.26;101027.34;5033486;28;20041;-68
2021/09/10 00:19:52;;;;;;;30.10;17.60;;;;;;;19.80;47.36;101025.06;5034930;28;20032;-69
2021/09/10 00:22:18;;;;;;;31.95;17.50;;;;;;;19.89;46.85;101019.88;5034580;28;20043;-69
2021/09/10 00:24:43;;;;;;;24.08;16.70;;;;;;;20.04;46.70;101039.09;5034696;28;20529;-69
2021/09/10 00:27:09;;;;;;;28.92;17.75;;;;;;;20.05;46.58;101035.47;5033173;28;20668;-68
2021/09/10 00:29:34;;;;;;;26.83;17.80;;;;;;;19.98;46.70;101034.25;5032592;28;20426;-70
2021/09/10 00:31:59;;;;;;;26.77;15.90;;;;;;;20.04;46.91;101030.28;5035146;28;20037;-67
2021/09/10 00:34:25;;;;;;;26.15;16.25;;;;;;;19.98;46.88;101022.81;5035408;28;20120;-69
2021/09/10 00:36:50;;;;;;;30.58;18.95;;;;;;;19.97;46.67;101027.28;5036814;28;20625;-67
2021/09/10 00:39:21;;;;;;;26.50;17.88;;;;;;;19.96;46.75;101025.56;5033654;28;20095;-70
2021/09/10 00:41:47;;;;;;;29.33;18.45;;;;;;;19.90;47.11;101020.72;5038959;28;20060;-68
2021/09/10 00:44:12;;;;;;;30.35;17.55;;;;;;;19.86;47.07;101028.09;5032366;28;20477;-70
2021/09/10 00:46:37;;;;;;;33.13;21.20;;;;;;;19.82;47.17;101028.44;5034582;28;20494;-68
2021/09/10 00:49:04;;;;;;;33.25;18.42;;;;;;;19.79;47.39;101033.97;5034131;28;20044;-67
2021/09/10 00:51:29;;;;;;;31.63;21.25;;;;;;;19.68;47.35;101035.66;5034685;28;20039;-71
2021/09/10 00:53:55;;;;;;;37.75;20.33;;;;;;;19.64;47.63;101042.16;5035176;28;20014;-68
2021/09/10 00:56:22;;;;;;;35.92;19.48;;;;;;;19.67;48.03;101036.59;5035090;28;20107;-69
2021/09/10 00:58:48;;;;;;;30.00;18.33;;;;;;;19.77;47.58;101046.50;5043396;28;20613;-68
2021/09/10 01:01:14;;;;;;;29.20;17.25;;;;;;;19.81;47.69;101047.97;5036293;28;20036;-71
2021/09/10 01:03:39;;;;;;;32.58;19.50;;;;;;;19.77;47.59;101043.84;5044143;28;20036;-70
2021/09/10 01:06:05;;;;;;;33.20;18.55;;;;;;;19.77;47.62;101049.16;5039633;28;20095;-70
2021/09/10 01:08:31;;;;;;;33.42;18.85;;;;;;;19.78;47.93;101048.22;5036890;28;20175;-70
2021/09/10 01:11:00;;;;;;;37.90;22.25;;;;;;;19.65;47.97;101043.81;5037595;28;20644;-70
2021/09/10 01:13:26;;;;;;;37.35;21.60;;;;;;;19.54;48.31;101043.75;5035519;28;20029;-66
2021/09/10 01:15:52;;;;;;;43.67;22.73;;;;;;;19.45;48.72;101042.66;5039174;28;20156;-67
2021/09/10 01:18:18;;;;;;;46.53;23.88;;;;;;;19.32;48.82;101047.19;5037361;28;20157;-67
2021/09/10 01:20:48;;;;;;;37.03;19.90;;;;;;;19.24;49.51;101057.53;5036983;28;20171;-67
2021/09/10 01:23:14;;;;;;;31.27;20.33;;;;;;;19.23;49.52;101069.94;5035376;28;20472;-67
2021/09/10 01:25:39;;;;;;;38.65;21.08;;;;;;;19.29;49.79;101077.41;5058399;28;20025;-66
2021/09/10 01:28:05;;;;;;;33.28;20.92;;;;;;;19.40;49.69;101081.06;5054373;28;20529;-67
2021/09/10 01:30:33;;;;;;;43.47;21.30;;;;;;;19.39;49.53;101077.59;5036659;28;20037;-72
2021/09/10 01:33:00;;;;;;;42.25;23.33;;;;;;;19.27;49.56;101087.28;5044119;28;20041;-73
2021/09/10 01:35:26;;;;;;;48.95;25.40;;;;;;;19.13;49.87;101090.09;5037749;28;20048;-73
2021/09/10 01:37:53;;;;;;;43.28;24.90;;;;;;;19.12;50.13;101096.34;5037464;28;20029;-74
2021/09/10 01:40:18;;;;;;;45.65;24.63;;;;;;;19.28;49.68;101107.53;5038551;28;20041;-74
2021/09/10 01:42:44;;;;;;;57.05;29.50;;;;;;;19.06;49.87;101105.59;5039922;28;20040;-74
2021/09/10 01:45:11;;;;;;;46.20;27.02;;;;;;;19.09;50.11;101112.47;5050049;28;20467;-74
2021/09/10 01:47:37;;;;;;;46.67;29.58;;;;;;;19.14;49.73;101118.28;5036591;28;20120;-75
2021/09/10 01:50:09;;;;;;;42.05;26.15;;;;;;;19.07;49.99;101114.38;5036406;28;20566;-74
2021/09/10 01:52:34;;;;;;;45.15;26.40;;;;;;;18.99;50.33;101122.91;5038103;28;20025;-74
2021/09/10 01:55:00;;;;;;;47.40;26.10;;;;;;;19.02;50.51;101113.88;5038281;28;20596;-74
2021/09/10 01:57:26;;;;;;;47.55;26.05;;;;;;;18.95;50.76;101117.94;5036567;28;20619;-74
2021/09/10 01:59:51;;;;;;;42.47;23.88;;;;;;;18.96;50.70;101099.25;5054147;28;20025;-73
2021/09/10 02:02:18;;;;;;;58.13;30.15;;;;;;;18.96;50.68;101098.41;5041602;28;20410;-73
2021/09/10 02:04:44;;;;;;;39.88;24.52;;;;;;;18.93;50.95;101093.34;5042716;28;20116;-74
2021/09/10 02:07:09;;;;;;;47.25;27.23;;;;;;;18.89;51.33;101093.56;5039359;28;20140;-73
2021/09/10 02:09:35;;;;;;;52.05;28.52;;;;;;;18.75;51.76;101095.50;5038862;28;20029;-72
2021/09/10 02:12:04;;;;;;;43.25;23.95;;;;;;;18.75;51.71;101092.84;5038993;28;20037;-72
2021/09/10 02:14:31;;;;;;;51.70;28.60;;;;;;;18.57;52.25;101087.06;5035831;28;20034;-72
2021/09/10 02:16:57;;;;;;;42.97;25.63;;;;;;;18.60;52.51;101086.81;5037028;28;20022;-70
2021/09/10 02:19:22;;;;;;;47.80;29.15;;;;;;;18.57;52.62;101081.75;5037937;28;20072;-68
2021/09/10 02:21:48;;;;;;;46.30;28.20;;;;;;;18.50;52.91;101081.34;5040045;28;20041;-68
2021/09/10 02:24:13;;;;;;;51.53;30.50;;;;;;;18.44;53.11;101079.97;5036154;28;20035;-69
2021/09/10 02:26:39;;;;;;;53.10;28.20;;;;;;;18.48;53.20;101083.25;5035447;28;20709;-68
2021/09/10 02:29:04;;;;;;;53.95;28.52;;;;;;;18.51;52.98;101083.03;5039016;28;20549;-69
2021/09/10 02:31:30;;;;;;;46.88;26.27;;;;;;;18.46;53.13;101083.34;5035608;28;20045;-68
2021/09/10 02:33:55;;;;;;;59.33;32.25;;;;;;;18.32;53.63;101083.50;5040060;28;20037;-68
2021/09/10 02:36:21;;;;;;;54.55;32.63;;;;;;;18.32;53.63;101079.97;5037976;28;20032;-67
2021/09/10 02:38:47;;;;;;;53.67;29.80;;;;;;;18.36;53.55;101079.66;5036440;28;20494;-67
2021/09/10 02:41:12;;;;;;;57.40;31.35;;;;;;;18.41;53.64;101080.19;5036493;28;20481;-67
2021/09/10 02:43:38;;;;;;;55.58;33.50;;;;;;;18.27;53.80;101080.28;5038163;28;20037;-71
2021/09/10 02:46:03;;;;;;;55.47;31.75;;;;;;;18.20;53.99;101073.75;5036382;28;20119;-72
2021/09/10 02:48:29;;;;;;;57.13;33.13;;;;;;;18.15;54.02;101078.47;5037954;28;20035;-70
2021/09/10 02:50:54;;;;;;;60.20;33.85;;;;;;;18.03;54.30;101083.66;5035622;28;20029;-71
2021/09/10 02:53:21;;;;;;;60.80;31.63;;;;;;;17.95;54.47;101078.03;5035420;28;20536;-72
2021/09/10 02:55:46;;;;;;;58.10;31.27;;;;;;;17.93;54.48;101082.59;5039011;28;20071;-69
2021/09/10 02:58:12;;;;;;;59.70;32.72;;;;;;;17.91;54.92;101079.19;5036317;28;20056;-71
2021/09/10 03:00:39;;;;;;;60.08;34.08;;;;;;;17.91;54.80;101071.25;5035371;28;20031;-71
2021/09/10 03:03:04;;;;;;;59.70;34.78;;;;;;;17.83;55.12;101077.09;5036996;28;20441;-71
2021/09/10 03:05:31;;;;;;;69.45;35.35;;;;;;;17.87;54.92;101077.72;5036419;28;20053;-70
2021/09/10 03:07:57;;;;;;;71.25;37.28;;;;;;;17.86;55.13;101081.31;5036657;28;20039;-69
2021/09/10 03:10:24;;;;;;;66.28;35.33;;;;;;;17.94;54.68;101079.00;5039193;28;20037;-70
2021/09/10 03:12:49;;;;;;;64.88;34.35;;;;;;;17.91;55.06;101087.13;5037570;28;20028;-69
2021/09/10 03:15:15;;;;;;;58.38;33.85;;;;;;;17.98;55.03;101085.78;5035491;28;20033;-68
2021/09/10 03:17:41;;;;;;;60.83;36.45;;;;;;;18.01;54.78;101079.44;5039244;28;20515;-70
2021/09/10 03:20:10;;;;;;;60.38;34.72;;;;;;;18.01;54.91;101074.16;5034828;28;20053;-69
2021/09/10 03:22:35;;;;;;;77.88;37.78;;;;;;;17.99;54.87;101070.75;5050808;28;20127;-69
2021/09/10 03:25:04;;;;;;;61.38;34.72;;;;;;;18.00;54.77;101070.63;5043284;28;20587;-70
2021/09/10 03:27:30;;;;;;;64.38;35.13;;;;;;;17.97;55.00;101062.06;5036613;28;20037;-68
2021/09/10 03:29:55;;;;;;;63.40;35.75;;;;;;;18.00;55.27;101062.69;5038285;28;20095;-74
2021/09/10 03:32:21;;;;;;;65.22;36.47;;;;;;;18.02;54.99;101065.25;5038772;28;20124;-71
2021/09/10 03:34:46;;;;;;;60.42;31.77;;;;;;;18.15;55.00;101057.31;5042919;28;20086;-73
2021/09/10 03:37:13;;;;;;;63.28;36.00;;;;;;;18.14;55.02;101052.97;5035213;28;20033;-71
2021/09/10 03:39:39;;;;;;;64.97;36.88;;;;;;;18.15;54.80;101066.09;5041305;28;20029;-71
2021/09/10 03:42:05;;;;;;;60.53;35.50;;;;;;;18.24;54.79;101059.34;5053456;28;20545;-71
2021/09/10 03:44:30;;;;;;;72.40;36.72;;;;;;;18.26;54.90;101062.75;5036679;28;20060;-71
2021/09/10 03:46:56;;;;;;;57.33;34.05;;;;;;;18.27;54.85;101056.47;5042511;28;20500;-71
2021/09/10 03:49:21;;;;;;;71.20;37.92;;;;;;;18.25;54.46;101039.88;5035821;28;20036;-71
2021/09/10 03:51:48;;;;;;;46.90;28.63;;;;;;;18.25;54.78;101040.75;5035715;28;20025;-71
2021/09/10 03:54:13;;;;;;;65.20;35.50;;;;;;;18.31;54.60;101044.72;5053366;28;20047;-70
2021/09/10 03:56:39;;;;;;;54.90;32.17;;;;;;;18.37;54.59;101049.59;5035685;28;20501;-70
2021/09/10 03:59:04;;;;;;;57.80;33.90;;;;;;;18.42;54.47;101046.63;5035021;28;20041;-70
2021/09/10 04:01:29;;;;;;;59.85;34.13;;;;;;;18.35;54.42;101035.63;5036870;28;20039;-70
2021/09/10 04:03:55;;;;;;;50.13;29.90;;;;;;;18.33;54.40;101037.53;5040639;28;20051;-70
2021/09/10 04:06:21;;;;;;;65.15;38.05;;;;;;;18.19;54.58;101038.50;5032248;28;20123;-70
2021/09/10 04:08:48;;;;;;;65.80;36.78;;;;;;;18.08;54.78;101041.03;5035720;28;21580;-70
2021/09/10 04:11:14;;;;;;;58.83;34.75;;;;;;;17.99;54.90;101057.53;5041375;28;20295;-70
2021/09/10 04:13:41;;;;;;;64.88;37.05;;;;;;;17.98;55.17;101053.19;5033771;28;20037;-71
2021/09/10 04:16:06;;;;;;;59.33;33.50;;;;;;;18.02;55.14;101055.50;5053372;28;20068;-70
2021/09/10 04:18:31;;;;;;;65.05;35.72;;;;;;;17.80;55.73;101063.22;5035273;28;20025;-69
2021/09/10 04:20:57;;;;;;;68.15;37.03;;;;;;;17.99;55.20;101068.94;5036606;28;20040;-69
2021/09/10 04:23:22;;;;;;;59.70;35.38;;;;;;;18.00;55.15;101070.63;5036434;28;20037;-69
2021/09/10 04:25:48;;;;;;;60.33;33.70;;;;;;;17.96;55.02;101077.09;5041940;28;20410;-68
2021/09/10 04:28:13;;;;;;;57.78;33.20;;;;;;;18.08;54.97;101074.56;5034337;28;20124;-70
2021/09/10 04:30:39;;;;;;;57.65;34.15;;;;;;;18.05;55.08;101075.59;5037150;28;20033;-69
2021/09/10 04:33:04;;;;;;;62.40;34.88;;;;;;;18.02;55.08;101081.94;5037798;28;20041;-71
2021/09/10 04:35:30;;;;;;;56.38;33.33;;;;;;;18.01;54.94;101080.28;5038563;28;20041;-71
2021/09/10 04:37:57;;;;;;;64.18;34.50;;;;;;;18.00;55.27;101083.00;5041554;28;20497;-69
2021/09/10 04:40:23;;;;;;;62.13;34.70;;;;;;;17.90;55.37;101076.69;5037896;28;20126;-71
2021/09/10 04:42:48;;;;;;;64.47;33.15;;;;;;;18.03;55.10;101077.53;5038723;28;20118;-71
2021/09/10 04:45:14;;;;;;;57.67;32.30;;;;;;;18.02;54.86;101076.66;5039770;28;20494;-70
2021/09/10 04:47:39;;;;;;;58.40;33.03;;;;;;;18.02;54.99;101076.66;5045641;28;20405;-71
2021/09/10 04:50:06;;;;;;;51.88;29.75;;;;;;;18.12;55.06;101081.31;5038940;28;20215;-70
2021/09/10 04:52:32;;;;;;;56.47;32.88;;;;;;;18.04;54.93;101074.75;5039322;28;20033;-70
2021/09/10 04:54:58;;;;;;;53.40;28.95;;;;;;;18.08;54.94;101077.22;5039802;28;20043;-70
2021/09/10 04:57:23;;;;;;;45.40;27.08;;;;;;;18.08;54.96;101069.28;5035842;28;20296;-70
2021/09/10 04:59:49;;;;;;;47.97;26.88;;;;;;;18.15;54.85;101073.19;5041198;28;20105;-71
2021/09/10 05:02:14;;;;;;;44.22;27.30;;;;;;;18.15;54.65;101073.19;5036924;28;20037;-73
2021/09/10 05:04:40;;;;;;;47.35;27.10;;;;;;;18.14;54.88;101071.47;5039468;28;20595;-71
2021/09/10 05:07:05;;;;;;;44.92;27.00;;;;;;;18.19;54.79;101077.34;5036324;28;20041;-68
2021/09/10 05:09:31;;;;;;;41.25;26.83;;;;;;;18.27;54.60;101082.94;5056564;28;20044;-67
2021/09/10 05:11:56;;;;;;;41.22;23.52;;;;;;;18.29;54.51;101077.53;5040333;28;20164;-66
2021/09/10 05:14:22;;;;;;;46.00;24.95;;;;;;;18.25;54.42;101082.19;5037824;28;20112;-67
2021/09/10 05:16:47;;;;;;;36.10;21.65;;;;;;;18.27;54.60;101090.88;5039948;28;20114;-67
2021/09/10 05:19:13;;;;;;;41.78;23.85;;;;;;;18.29;54.38;101096.06;5043285;28;20074;-68
2021/09/10 05:21:39;;;;;;;37.95;21.85;;;;;;;18.30;54.45;101095.97;5040653;28;20398;-69
2021/09/10 05:24:05;;;;;;;39.92;23.38;;;;;;;18.17;54.62;101098.59;5037313;28;20537;-68
2021/09/10 05:26:31;;;;;;;36.83;21.08;;;;;;;18.27;54.46;101096.16;5039808;28;20055;-70
2021/09/10 05:28:57;;;;;;;36.92;20.92;;;;;;;18.25;54.23;101103.34;5038986;28;20035;-67
2021/09/10 05:31:22;;;;;;;31.70;21.20;;;;;;;18.23;54.36;101097.34;5037064;28;20037;-68
2021/09/10 05:33:48;;;;;;;31.35;20.30;;;;;;;18.24;54.06;101102.53;5039181;28;20037;-66
2021/09/10 05:36:14;;;;;;;30.75;19.33;;;;;;;18.33;53.92;101097.56;5035978;28;20098;-68
2021/09/10 05:38:39;;;;;;;31.55;19.52;;;;;;;18.27;53.95;101102.34;5037176;28;20029;-68
2021/09/10 05:41:05;;;;;;;31.15;17.52;;;;;;;18.22;54.05;101104.41;5037922;28;20497;-67
2021/09/10 05:44:18;;;;;;;23.80;16.02;;;;;;;18.24;54.43;101104.31;5040569;28;20040;-68
2021/09/10 05:46:43;;;;;;;25.10;16.13;;;;;;;18.22;54.10;101115.00;5043058;28;20748;-67
2021/09/10 05:49:10;;;;;;;26.10;16.35;;;;;;;18.33;53.89;101113.44;5037929;28;20128;-68
2021/09/10 05:51:36;;;;;;;32.20;16.38;;;;;;;18.31;53.52;101116.16;5038355;28;20028;-68
2021/09/10 05:54:02;;;;;;;43.20;19.58;;;;;;;18.31;53.95;101113.53;5037864;28;20057;-69
2021/09/10 05:56:27;;;;;;;21.42;14.13;;;;;;;18.23;53.80;101110.59;5039533;28;20076;-68
2021/09/10 05:58:53;;;;;;;23.70;14.00;;;;;;;18.18;53.81;101117.94;5051633;28;20108;-67
2021/09/10 06:01:18;;;;;;;26.58;14.73;;;;;;;18.24;53.90;101122.84;5036285;28;20516;-66
2021/09/10 06:03:44;;;;;;;28.95;14.98;;;;;;;18.35;53.71;101119.47;5036439;28;20060;-64
2021/09/10 06:06:10;;;;;;;24.98;14.80;;;;;;;18.43;53.60;101117.97;5035901;28;20410;-66
2021/09/10 06:08:39;;;;;;;19.80;11.85;;;;;;;18.49;53.46;101116.69;5038036;28;20044;-67
2021/09/10 06:11:05;;;;;;;25.10;11.68;;;;;;;18.57;53.33;101124.13;5039973;28;20048;-69
2021/09/10 06:13:33;;;;;;;21.23;12.15;;;;;;;18.59;53.02;101130.16;5035963;28;20022;-68
2021/09/10 06:15:59;;;;;;;14.80;10.40;;;;;;;18.74;53.11;101131.69;5036610;28;20532;-67
2021/09/10 06:18:24;;;;;;;22.65;13.85;;;;;;;18.75;52.48;101138.69;5036945;28;20045;-66
2021/09/10 06:20:50;;;;;;;19.25;10.95;;;;;;;18.74;52.81;101142.28;5037790;28;20232;-68
2021/09/10 06:23:15;;;;;;;16.77;11.45;;;;;;;18.80;52.49;101135.72;5038304;28;20112;-66
2021/09/10 06:25:41;;;;;;;17.15;10.98;;;;;;;18.89;52.55;101141.22;5038200;28;20037;-67
2021/09/10 06:28:08;;;;;;;18.38;10.80;;;;;;;18.93;52.08;101141.03;5038977;28;20049;-65
2021/09/10 06:30:35;;;;;;;24.35;11.50;;;;;;;19.00;52.33;101143.13;5040357;28;20049;-66
2021/09/10 06:33:00;;;;;;;17.95;9.93;;;;;;;19.07;51.81;101148.81;5026314;28;20047;-67
2021/09/10 06:35:26;;;;;;;13.05;8.23;;;;;;;19.30;51.37;101145.38;5033970;28;22527;-67
2021/09/10 06:37:51;;;;;;;19.08;10.88;;;;;;;19.21;50.93;101140.75;5037389;28;20450;-67
2021/09/10 06:40:17;;;;;;;11.75;9.10;;;;;;;19.35;51.01;101141.53;5034484;28;20037;-68
2021/09/10 06:42:45;;;;;;;15.30;9.60;;;;;;;19.55;50.89;101146.25;5037272;28;20621;-67
2021/09/10 06:45:11;;;;;;;14.45;9.40;;;;;;;19.80;50.87;101142.59;5035406;28;20450;-67
2021/09/10 06:47:37;;;;;;;15.77;8.85;;;;;;;20.13;50.24;101138.34;5037710;28;20029;-67
2021/09/10 06:50:09;;;;;;;13.23;8.25;;;;;;;20.30;48.52;101129.94;5035042;28;20037;-68
2021/09/10 06:52:38;;;;;;;13.88;9.05;;;;;;;20.58;47.55;101130.47;5033803;28;20025;-73
2021/09/10 06:55:04;;;;;;;13.40;8.82;;;;;;;20.62;47.13;101139.00;5038574;28;20504;-67
2021/09/10 06:57:29;;;;;;;11.13;7.88;;;;;;;20.67;47.36;101142.19;5037665;28;20096;-67
2021/09/10 06:59:57;;;;;;;11.55;7.35;;;;;;;20.84;47.75;101146.13;5049067;28;20111;-68
2021/09/10 07:02:23;;;;;;;13.65;8.65;;;;;;;20.84;47.52;101144.38;5035149;28;20121;-68
2021/09/10 07:04:48;;;;;;;12.10;7.93;;;;;;;20.69;47.37;101150.88;5042735;28;20436;-67
2021/09/10 07:07:13;;;;;;;14.65;8.43;;;;;;;20.59;47.43;101149.88;5035551;28;20059;-68
2021/09/10 07:09:39;;;;;;;9.60;7.38;;;;;;;20.49;47.56;101150.63;5036202;28;20641;-68
2021/09/10 07:12:07;;;;;;;11.95;8.10;;;;;;;20.84;47.03;101148.78;5035216;28;20060;-68
2021/09/10 07:14:33;;;;;;;9.13;6.55;;;;;;;20.82;46.65;101161.34;5038635;28;20112;-68
2021/09/10 07:16:59;;;;;;;10.13;7.03;;;;;;;21.01;46.86;101156.28;5038030;28;20116;-68
2021/09/10 07:19:24;;;;;;;8.95;5.72;;;;;;;20.78;46.25;101160.75;5046669;28;20060;-68
2021/09/10 07:21:50;;;;;;;12.05;6.55;;;;;;;20.96;46.64;101158.47;5036598;28;20040;-68
2021/09/10 07:24:15;;;;;;;10.80;5.97;;;;;;;20.89;46.29;101163.44;5035730;28;20038;-67
2021/09/10 07:26:41;;;;;;;10.13;6.03;;;;;;;20.80;46.23;101169.47;5037262;28;20044;-68
2021/09/10 07:29:06;;;;;;;8.63;5.03;;;;;;;20.74;47.00;101169.94;5034533;28;20049;-67
2021/09/10 07:31:32;;;;;;;7.72;4.78;;;;;;;20.61;46.75;101174.53;5036948;28;20037;-69
2021/09/10 07:33:57;;;;;;;8.25;5.53;;;;;;;20.43;47.31;101171.50;5035074;28;20028;-69
2021/09/10 07:36:23;;;;;;;8.15;4.82;;;;;;;20.78;47.43;101176.69;5034579;28;20031;-69
2021/09/10 07:38:48;;;;;;;7.43;4.38;;;;;;;20.69;46.46;101177.44;5034528;28;20755;-69
2021/09/10 07:41:14;;;;;;;7.68;4.53;;;;;;;20.70;46.39;101182.59;5031555;28;20033;-69
2021/09/10 07:43:39;;;;;;;8.23;5.38;;;;;;;20.78;46.64;101176.69;5033573;28;20021;-67
2021/09/10 07:46:05;;;;;;;8.10;5.22;;;;;;;20.59;46.54;101179.94;5035030;28;20060;-68
2021/09/10 07:48:30;;;;;;;7.90;4.80;;;;;;;20.57;47.01;101189.00;5033247;28;20514;-69
2021/09/10 07:50:56;;;;;;;14.07;6.20;;;;;;;20.58;46.93;101193.34;5035680;28;20360;-70
2021/09/10 07:53:21;;;;;;;6.70;4.75;;;;;;;20.20;46.99;101194.47;5039917;28;20037;-69
2021/09/10 07:55:47;;;;;;;7.47;4.38;;;;;;;20.41;47.91;101184.88;5036277;28;20106;-70
2021/09/10 07:58:12;;;;;;;7.00;4.82;;;;;;;20.38;47.47;101189.59;5033072;28;20512;-70
2021/09/10 08:00:40;;;;;;;6.50;4.50;;;;;;;20.47;48.03;101195.03;5032085;28;20031;-68
2021/09/10 08:03:05;;;;;;;6.85;3.92;;;;;;;20.54;47.14;101190.91;5031094;28;20033;-68
2021/09/10 08:05:31;;;;;;;6.13;3.80;;;;;;;20.65;46.88;101192.75;5031223;28;20059;-70
2021/09/10 08:07:56;;;;;;;5.43;3.38;;;;;;;20.72;46.71;101193.13;5033855;28;20028;-69
2021/09/10 08:10:22;;;;;;;6.22;4.50;;;;;;;20.76;46.20;101194.56;5030917;28;20480;-68
2021/09/10 08:12:50;;;;;;;6.28;4.80;;;;;;;20.79;47.53;101204.94;5032578;28;20051;-68
2021/09/10 08:15:17;;;;;;;4.95;4.03;;;;;;;21.02;47.25;101203.19;5030497;28;20489;-68
2021/09/10 08:17:43;;;;;;;5.38;3.95;;;;;;;20.98;46.82;101209.69;5035871;28;20029;-67
2021/09/10 08:20:10;;;;;;;5.65;4.18;;;;;;;20.46;46.86;101209.28;5031739;28;20063;-68
2021/09/10 08:22:36;;;;;;;7.20;3.58;;;;;;;20.49;46.95;101213.50;5032719;28;20041;-68
2021/09/10 08:25:04;;;;;;;5.07;3.72;;;;;;;20.53;47.03;101214.97;5037847;28;20041;-68
2021/09/10 08:27:30;;;;;;;6.78;3.85;;;;;;;20.60;47.07;101221.47;5036744;28;20504;-68
2021/09/10 08:29:56;;;;;;;8.82;4.28;;;;;;;20.74;46.88;101223.06;5034970;28;20037;-69
2021/09/10 08:32:23;;;;;;;7.60;3.75;;;;;;;20.87;46.81;101237.09;5032965;28;20029;-67
2021/09/10 08:34:49;;;;;;;5.93;3.05;;;;;;;20.59;47.08;101238.34;5033286;28;20461;-68
2021/09/10 08:37:14;;;;;;;7.72;3.47;;;;;;;20.34;47.21;101242.06;5031390;28;20029;-68
2021/09/10 08:39:40;;;;;;;5.70;2.95;;;;;;;20.78;46.79;101235.13;5033947;28;20021;-68
2021/09/10 08:42:09;;;;;;;4.32;2.90;;;;;;;20.81;46.56;101242.84;5035626;28;20072;-68
2021/09/10 08:44:39;;;;;;;7.72;2.85;;;;;;;20.69;46.93;101241.16;5033402;28;20029;-69
2021/09/10 08:47:08;;;;;;;3.88;3.25;;;;;;;20.58;46.81;101243.81;5032021;28;20033;-69
2021/09/10 08:49:34;;;;;;;3.88;2.67;;;;;;;20.78;46.75;101251.06;5039521;28;20030;-70
2021/09/10 08:52:00;;;;;;;5.45;2.08;;;;;;;20.96;46.05;101243.50;5036379;28;20035;-70
2021/09/10 08:54:25;;;;;;;3.30;2.63;;;;;;;20.71;46.20;101249.88;5036338;28;20095;-68
2021/09/10 08:56:51;;;;;;;4.13;2.45;;;;;;;20.50;47.53;101247.88;5040007;28;20421;-69
2021/09/10 08:59:19;;;;;;;4.25;1.75;;;;;;;20.66;46.46;101244.91;5039790;28;20040;-70
2021/09/10 09:01:50;;;;;;;3.75;1.88;;;;;;;20.93;45.41;101243.72;5041597;28;20555;-70
2021/09/10 09:04:16;;;;;;;2.38;1.63;;;;;;;20.81;45.54;101240.19;5038612;28;20046;-69
2021/09/10 09:06:42;;;;;;;2.85;2.05;;;;;;;21.00;44.39;101244.09;5036341;28;20048;-70
2021/09/10 09:09:07;;;;;;;2.90;1.92;;;;;;;21.21;44.28;101246.88;5039074;28;20037;-68
2021/09/10 09:11:33;;;;;;;1.67;1.38;;;;;;;21.33;44.40;101245.88;5033576;28;20036;-69
2021/09/10 09:14:03;;;;;;;5.47;1.52;;;;;;;21.50;43.61;101241.91;5033906;28;20021;-69
2021/09/10 09:16:30;;;;;;;4.78;1.90;;;;;;;21.63;43.47;101247.94;5034393;28;20033;-67
2021/09/10 09:19:01;;;;;;;4.80;1.38;;;;;;;21.60;44.32;101250.84;5037471;28;20036;-68
2021/09/10 09:21:37;;;;;;;2.93;2.57;;;;;;;22.08;43.28;101247.78;5037974;28;20041;-68
2021/09/10 09:24:21;;;;;;;2.53;2.22;;;;;;;22.30;43.30;101252.16;5037913;28;20514;-68
2021/09/10 09:26:51;;;;;;;2.05;1.50;;;;;;;22.85;41.77;101245.78;5037354;28;20029;-69
2021/09/10 09:29:19;;;;;;;2.60;1.45;;;;;;;23.02;41.10;101242.50;5042235;28;20481;-68
2021/09/10 09:32:01;;;;;;;4.05;1.70;;;;;;;22.89;41.24;101234.72;5027617;28;20515;-68
2021/09/10 09:34:48;;;;;;;3.97;2.20;;;;;;;22.69;42.10;101235.59;5040485;28;20041;-68
2021/09/10 09:37:17;;;;;;;2.75;1.85;;;;;;;22.57;42.26;101230.31;5034885;28;20036;-68
2021/09/10 09:39:54;;;;;;;3.38;2.10;;;;;;;22.34;42.45;101242.13;5037288;28;20517;-68
2021/09/10 09:42:30;;;;;;;3.15;1.95;;;;;;;22.13;42.52;101234.94;5056219;28;20075;-68
2021/09/10 09:45:16;;;;;;;2.63;2.25;;;;;;;22.52;41.92;101234.38;5037322;28;20036;-68
2021/09/10 09:47:43;;;;;;;3.80;2.22;;;;;;;23.05;40.73;101231.53;5042615;28;20064;-69
2021/09/10 09:50:14;;;;;;;3.70;2.10;;;;;;;23.36;41.02;101229.69;5042000;28;20041;-72
2021/09/10 09:52:39;;;;;;;3.95;2.40;;;;;;;23.35;40.01;101233.38;5038161;28;20047;-72
2021/09/10 09:55:07;;;;;;;3.75;2.80;;;;;;;23.76;40.24;101233.28;5042261;28;20041;-66
2021/09/10 09:57:34;;;;;;;4.03;2.42;;;;;;;24.16;39.05;101238.50;5036648;28;20036;-68
2021/09/10 10:00:05;;;;;;;7.40;2.90;;;;;;;24.64;39.12;101236.75;5037706;28;20043;-69
2021/09/10 10:02:34;;;;;;;2.22;1.92;;;;;;;24.76;38.53;101240.09;5036212;28;20070;-69
2021/09/10 10:05:00;;;;;;;3.20;2.17;;;;;;;25.24;37.41;101239.03;5040110;28;20402;-69
2021/09/10 10:07:35;;;;;;;2.58;2.22;;;;;;;25.23;38.44;101237.38;5038287;28;20038;-69
2021/09/10 10:10:01;;;;;;;2.42;1.98;;;;;;;25.81;35.58;101236.16;5038737;28;20128;-69
2021/09/10 10:12:27;;;;;;;2.40;1.75;;;;;;;25.40;36.69;101239.25;5034907;28;20170;-69
2021/09/10 10:14:53;;;;;;;2.80;1.27;;;;;;;24.82;37.33;101232.34;5041925;28;20075;-68
2021/09/10 10:17:31;;;;;;;2.50;1.58;;;;;;;25.14;37.31;101236.44;5036293;28;20027;-69
2021/09/10 10:19:56;;;;;;;2.47;1.65;;;;;;;25.37;36.90;101239.53;5044161;28;20036;-69
2021/09/10 10:22:34;;;;;;;2.78;1.08;;;;;;;25.56;36.07;101245.81;5034769;28;20322;-69
2021/09/10 10:25:01;;;;;;;2.00;1.60;;;;;;;25.87;37.04;101247.09;5049498;28;20022;-69
2021/09/10 10:27:35;;;;;;;3.22;2.22;;;;;;;26.07;36.28;101236.25;5043872;28;20037;-69
2021/09/10 10:30:07;;;;;;;3.63;1.70;;;;;;;25.94;36.47;101233.09;5042432;28;20033;-69
2021/09/10 10:32:36;;;;;;;2.88;2.20;;;;;;;25.94;36.32;101235.78;5041070;28;20484;-69
2021/09/10 10:35:15;;;;;;;2.78;1.90;;;;;;;26.55;35.36;101224.19;5035509;28;20040;-68
2021/09/10 10:37:43;;;;;;;2.53;1.70;;;;;;;27.33;33.81;101220.56;5051370;28;20448;-69
2021/09/10 10:40:34;;;;;;;3.20;2.22;;;;;;;26.88;33.89;101224.41;5052865;28;20082;-70
2021/09/10 10:43:03;;;;;;;3.28;1.77;;;;;;;26.50;35.44;101221.16;5046502;28;20179;-68
2021/09/10 10:45:40;;;;;;;2.95;2.25;;;;;;;26.44;34.79;101227.13;5041917;28;20040;-69
2021/09/10 10:48:35;;;;;;;2.35;1.83;;;;;;;26.69;33.65;101220.97;5036720;28;20045;-68
2021/09/10 10:51:22;;;;;;;2.47;1.30;;;;;;;26.83;33.94;101216.00;5037866;28;20069;-70
2021/09/10 10:53:47;;;;;;;3.50;1.17;;;;;;;27.41;32.41;101209.84;5053261;28;20033;-69
2021/09/10 10:56:23;;;;;;;1.92;1.77;;;;;;;26.82;33.55;101206.25;5037796;28;20385;-69
2021/09/10 10:59:14;;;;;;;3.33;2.28;;;;;;;25.92;35.24;101213.69;5053563;28;20481;-68
2021/09/10 11:02:15;;;;;;;4.07;2.22;;;;;;;25.88;35.22;101223.84;5034223;28;20029;-69
2021/09/10 11:05:08;;;;;;;3.05;2.53;;;;;;;26.11;35.57;101215.34;5026990;28;20068;-69
2021/09/10 11:07:34;;;;;;;5.32;3.17;;;;;;;25.85;37.50;101210.78;5034291;28;20067;-69
2021/09/10 11:10:05;;;;;;;4.78;4.00;;;;;;;25.90;36.35;101213.81;5036560;28;20283;-69
2021/09/10 11:12:32;;;;;;;6.57;4.15;;;;;;;25.53;37.41;101216.66;5040219;28;20040;-69
2021/09/10 11:14:59;;;;;;;7.22;5.07;;;;;;;25.59;37.26;101202.66;5035966;28;20524;-69